Aérodrome :







RETROUVEZ-NOUS SUR...

 
LOGIN :

S'inscrire | Disclaimer

   EN    FR    IT 

 









Légende :    VFR   VFR Marginal   IFR   IFR Intensif   IFR Très Intensif
Visi : 
Plafond : 
>= 8 km
>= 3000ft
5 à 8 km
1000 à 3000 ft
1500m à 5 km
500 à 1000 ft
800 à 1500m
200 à 500 ft
< 800m
< 200 ft
Symboles :   Orages  Brouillard  Fortes neiges  Fortes précipitations  Vent > 20 kt






- Altitude de l'aérodrome : 129 ft
- Code IATA : YVP


CYVP - Kuujjuak

DERNIER METAR :
  • 141300Z 25011G18KT 3SM -SN DRSN SCT010 SCT036 BKN047 M08/M10 A2962 RMK SN2SF1SC1SC2 SLP037

METARs EXPIRÉS :
  • 141200Z 24010G16KT 15SM -SN DRSN SCT021 BKN033 BKN050 M08/M10 A2963 RMK SN2SC1SC2SC2 SLP038
  • 141143Z 25012G22KT 2 1/2SM -SN DRSN SCT018 BKN032 BKN050 M08/M11 A2963 RMK SN2SC2SC2SC1 SLP038
  • 141100Z 25012G21KT 8SM -SN DRSN SCT018 SCT035 BKN050 M08/M11 A2962 RMK SC3SC1SC2 SLP037

TAF AMD TAF CYVP
Valide du 14 à 12h jusqu'au 15 à 00h UTC


141236Z 1412/1424 25012G22KT P6SM -SN BKN025 OVC050
TEMPO 1412/1415 21/2SM -SN OVC020
FM141500 25012G22KT P6SM -SN BKN025 OVC050
TEMPO 1415/1422 4SM -SN OVC020
FM142200 22010G20KT P6SM BKN025 OVC070
TEMPO 1422/1424 4SM -SN OVC020 RMK NXT FCST BY 141800Z



MET'MAP, la Météo Aéronautique d'un coup d'oeil ! - Copyright ORBIFLY Décembre 2007 - Disclaimer

ORBIFLY MET'MAP TEAM :

Programmation & Développement : Alexandra Zaïnal
Conception & Développement : Baudouin d'Aumeries
Co-Programmation & Développement : Marc-Olivier Méhu
Soutien technique & logistique : Manuel Goepfert

Contact : metmap@orbifly.com




SOURCES & CREDITS :

   NOAA